Time;durP1;ratioP1;P1;durP2;ratioP2;P2;SDS_P1;SDS_P2;PMS_P1;PMS_P2;Temp;Humidity;BMP_temperature;BMP_pressure;BME280_temperature;BME280_humidity;BME280_pressure;Samples;Min_cycle;Max_cycle;Signal;HPM_P1;HPM_P2
2023/01/19 00:00:10;;;;;;;14.98;7.82;;;;;;;;;;5060955;28;20413;-58
2023/01/19 00:02:35;;;;;;;14.75;8.63;;;;;;;;;;5064447;28;20063;-58
2023/01/19 00:05:02;;;;;;;13.75;8.48;;;;;;;;;;5065008;28;20028;-58
2023/01/19 00:07:31;;;;;;;12.18;7.30;;;;;;;;;;5060186;28;20048;-59
2023/01/19 00:09:56;;;;;;;18.23;9.18;;;;;;;;;;5064364;28;20307;-59
2023/01/19 00:12:22;;;;;;;13.90;7.57;;;;;;;;;;5063171;28;20052;-59
2023/01/19 00:14:47;;;;;;;17.80;8.35;;;;;;;;;;5065637;28;20032;-58
2023/01/19 00:17:12;;;;;;;17.63;8.75;;;;;;;;;;5061473;28;20027;-58
2023/01/19 00:19:37;;;;;;;16.23;9.77;;;;;;;;;;5064414;28;20266;-59
2023/01/19 00:22:04;;;;;;;17.73;8.57;;;;;;;;;;5064049;28;20108;-58
2023/01/19 00:24:30;;;;;;;19.90;9.63;;;;;;;;;;5065300;28;20102;-59
2023/01/19 00:26:55;;;;;;;16.20;9.15;;;;;;;;;;5063606;28;20471;-59
2023/01/19 00:29:20;;;;;;;16.60;9.32;;;;;;;;;;5062748;28;20093;-59
2023/01/19 00:31:46;;;;;;;17.88;9.05;;;;;;;;;;5065608;28;20029;-59
2023/01/19 00:34:11;;;;;;;14.32;8.60;;;;;;;;;;5064255;28;20447;-62
2023/01/19 00:36:36;;;;;;;20.95;9.07;;;;;;;;;;5064761;28;20634;-59
2023/01/19 00:39:01;;;;;;;19.35;9.38;;;;;;;;;;5068435;28;20024;-58
2023/01/19 00:44:11;;;;;;;21.55;10.63;;;;;;;;;;5063964;28;20537;-59
2023/01/19 00:46:36;;;;;;;21.65;10.70;;;;;;;;;;5067583;28;20017;-58
2023/01/19 00:49:02;;;;;;;23.75;10.10;;;;;;;;;;5066669;28;20036;-58
2023/01/19 00:51:27;;;;;;;13.52;8.27;;;;;;;;;;5084106;28;20366;-58
2023/01/19 00:53:52;;;;;;;22.02;9.75;;;;;;;;;;5068221;28;20439;-58
2023/01/19 00:56:17;;;;;;;17.85;9.70;;;;;;;;;;5066744;28;20040;-58
2023/01/19 00:58:43;;;;;;;18.38;10.00;;;;;;;;;;5067822;28;20040;-58
2023/01/19 01:01:09;;;;;;;19.58;10.75;;;;;;;;;;5068171;28;20086;-59
2023/01/19 01:03:34;;;;;;;23.00;11.07;;;;;;;;;;5067615;28;20024;-58
2023/01/19 01:05:59;;;;;;;16.63;9.43;;;;;;;;;;5068531;28;21576;-59
2023/01/19 01:08:24;;;;;;;12.65;7.60;;;;;;;;;;5067747;28;20140;-58
2023/01/19 01:10:50;;;;;;;21.88;13.00;;;;;;;;;;5067961;28;20047;-59
2023/01/19 01:13:15;;;;;;;24.58;12.02;;;;;;;;;;5063262;28;20111;-58
2023/01/19 01:15:41;;;;;;;11.98;7.65;;;;;;;;;;5067644;28;20036;-58
2023/01/19 01:18:06;;;;;;;22.45;10.93;;;;;;;;;;5067747;28;20035;-58
2023/01/19 01:20:33;;;;;;;17.98;10.57;;;;;;;;;;5066641;28;20632;-58
2023/01/19 01:22:58;;;;;;;20.77;10.82;;;;;;;;;;5066379;28;20167;-58
2023/01/19 01:25:24;;;;;;;20.17;10.13;;;;;;;;;;5060924;28;20111;-58
2023/01/19 01:27:49;;;;;;;23.45;9.60;;;;;;;;;;5066361;28;20033;-58
2023/01/19 01:30:15;;;;;;;21.17;11.77;;;;;;;;;;5066941;28;20394;-58
2023/01/19 01:32:40;;;;;;;23.17;11.77;;;;;;;;;;5066235;28;20024;-58
2023/01/19 01:35:07;;;;;;;24.08;9.70;;;;;;;;;;5065467;28;20036;-58
2023/01/19 01:37:33;;;;;;;21.25;11.75;;;;;;;;;;5065903;28;20024;-58
2023/01/19 01:39:58;;;;;;;18.70;11.05;;;;;;;;;;5067081;28;20518;-58
2023/01/19 01:42:27;;;;;;;22.13;12.35;;;;;;;;;;5066585;28;20046;-57
2023/01/19 01:44:53;;;;;;;16.40;7.95;;;;;;;;;;5060357;28;20024;-59
2023/01/19 01:47:27;;;;;;;19.92;10.00;;;;;;;;;;5066051;28;20028;-59
2023/01/19 01:49:53;;;;;;;21.45;11.02;;;;;;;;;;5065782;28;20029;-59
2023/01/19 01:52:19;;;;;;;24.17;11.48;;;;;;;;;;5066110;28;20043;-59
2023/01/19 01:54:44;;;;;;;25.00;12.30;;;;;;;;;;5065280;28;20452;-59
2023/01/19 01:57:11;;;;;;;26.45;12.75;;;;;;;;;;5065634;28;20033;-57
2023/01/19 01:59:38;;;;;;;22.35;10.23;;;;;;;;;;5064984;28;20443;-59
2023/01/19 02:04:49;;;;;;;23.80;13.07;;;;;;;;;;5065662;28;20113;-60
2023/01/19 02:15:28;;;;;;;16.67;9.48;;;;;;;;;;5066815;28;20031;-59
2023/01/19 02:17:53;;;;;;;21.23;11.88;;;;;;;;;;5063306;28;20037;-58
2023/01/19 02:20:18;;;;;;;26.75;13.48;;;;;;;;;;5066255;28;20028;-59
2023/01/19 02:22:47;;;;;;;27.25;13.65;;;;;;;;;;5065158;28;20134;-58
2023/01/19 02:25:12;;;;;;;32.75;13.40;;;;;;;;;;5063570;28;20208;-58
2023/01/19 02:27:38;;;;;;;23.55;12.25;;;;;;;;;;5061367;28;20453;-58
2023/01/19 02:30:03;;;;;;;23.23;13.02;;;;;;;;;;5064175;28;20029;-58
2023/01/19 02:32:29;;;;;;;25.33;14.10;;;;;;;;;;5064302;28;20028;-59
2023/01/19 02:34:54;;;;;;;27.92;12.88;;;;;;;;;;5066249;28;20517;-58
2023/01/19 02:37:19;;;;;;;31.02;13.43;;;;;;;;;;5066401;28;20627;-58
2023/01/19 02:39:46;;;;;;;31.15;13.93;;;;;;;;;;5055717;28;20078;-59
2023/01/19 02:42:12;;;;;;;25.45;13.20;;;;;;;;;;5063946;28;20025;-58
2023/01/19 02:44:38;;;;;;;33.40;14.43;;;;;;;;;;5065021;28;20481;-58
2023/01/19 02:47:03;;;;;;;29.38;13.90;;;;;;;;;;5063713;28;20112;-58
2023/01/19 02:49:29;;;;;;;28.35;12.45;;;;;;;;;;5062190;28;20467;-58
2023/01/19 02:51:54;;;;;;;29.10;14.82;;;;;;;;;;5049301;28;20028;-58
2023/01/19 02:54:22;;;;;;;28.77;13.90;;;;;;;;;;5066138;28;20024;-58
2023/01/19 02:56:48;;;;;;;28.75;14.02;;;;;;;;;;5063340;28;20115;-58
2023/01/19 02:59:15;;;;;;;28.67;13.77;;;;;;;;;;5064995;28;20119;-58
2023/01/19 03:01:59;;;;;;;26.30;13.35;;;;;;;;;;5065252;28;20017;-58
2023/01/19 03:04:27;;;;;;;29.77;15.10;;;;;;;;;;5065620;28;20063;-58
2023/01/19 03:06:54;;;;;;;28.05;12.52;;;;;;;;;;5065302;28;20040;-58
2023/01/19 03:09:25;;;;;;;29.13;13.88;;;;;;;;;;5063527;28;20040;-58
2023/01/19 03:11:53;;;;;;;26.02;14.05;;;;;;;;;;5064391;28;20111;-63
2023/01/19 03:14:22;;;;;;;25.13;12.07;;;;;;;;;;5065923;28;20021;-58
2023/01/19 03:16:53;;;;;;;26.60;12.27;;;;;;;;;;5055703;28;20028;-58
2023/01/19 03:19:19;;;;;;;20.63;12.52;;;;;;;;;;5062995;28;20085;-58
2023/01/19 03:21:44;;;;;;;30.55;14.88;;;;;;;;;;5065515;28;20020;-59
2023/01/19 03:24:10;;;;;;;25.10;12.65;;;;;;;;;;5066455;28;20033;-58
2023/01/19 03:26:36;;;;;;;26.70;11.57;;;;;;;;;;5060322;28;20112;-58
2023/01/19 03:29:02;;;;;;;26.75;13.02;;;;;;;;;;5059126;28;20041;-58
2023/01/19 03:31:27;;;;;;;28.35;14.02;;;;;;;;;;5063677;28;20040;-58
2023/01/19 03:33:54;;;;;;;29.65;14.85;;;;;;;;;;5062780;28;20067;-58
2023/01/19 03:36:20;;;;;;;34.55;15.73;;;;;;;;;;5062739;28;20024;-59
2023/01/19 03:38:46;;;;;;;31.50;16.20;;;;;;;;;;5060963;28;20032;-58
2023/01/19 03:41:12;;;;;;;32.67;14.70;;;;;;;;;;5063800;28;20090;-58
2023/01/19 03:43:37;;;;;;;28.45;14.25;;;;;;;;;;5058796;28;20642;-58
2023/01/19 03:46:03;;;;;;;28.00;12.63;;;;;;;;;;5065499;28;20041;-58
2023/01/19 03:48:28;;;;;;;27.35;13.52;;;;;;;;;;5063051;28;20659;-58
2023/01/19 03:50:53;;;;;;;38.30;13.32;;;;;;;;;;5061918;28;20074;-58
2023/01/19 03:53:19;;;;;;;29.73;15.35;;;;;;;;;;5057685;28;20039;-58
2023/01/19 03:55:46;;;;;;;25.95;14.02;;;;;;;;;;5062672;28;20025;-58
2023/01/19 03:58:11;;;;;;;24.55;13.13;;;;;;;;;;5064757;28;20082;-58
2023/01/19 04:00:36;;;;;;;33.67;16.17;;;;;;;;;;5065795;28;20497;-59
2023/01/19 04:03:04;;;;;;;33.85;15.25;;;;;;;;;;5064847;28;20056;-58
2023/01/19 04:05:29;;;;;;;25.95;12.63;;;;;;;;;;5064990;28;20040;-58
2023/01/19 04:07:55;;;;;;;31.70;15.88;;;;;;;;;;5064583;28;20051;-58
2023/01/19 04:10:20;;;;;;;30.48;14.88;;;;;;;;;;5064682;28;20037;-58
2023/01/19 04:12:45;;;;;;;30.15;15.60;;;;;;;;;;5068054;28;20052;-59
2023/01/19 04:15:10;;;;;;;25.95;12.63;;;;;;;;;;5068148;28;20402;-59
2023/01/19 04:17:36;;;;;;;31.95;15.93;;;;;;;;;;5069274;28;20112;-59
2023/01/19 04:20:01;;;;;;;32.78;16.40;;;;;;;;;;5065840;28;20119;-59
2023/01/19 04:22:26;;;;;;;30.42;14.90;;;;;;;;;;5069387;28;20036;-59
2023/01/19 04:24:52;;;;;;;40.47;16.40;;;;;;;;;;5065442;28;20418;-59
2023/01/19 04:27:17;;;;;;;37.67;16.13;;;;;;;;;;5068970;28;20060;-59
2023/01/19 04:29:42;;;;;;;33.20;15.50;;;;;;;;;;5066733;28;20025;-59
2023/01/19 04:32:08;;;;;;;33.20;17.67;;;;;;;;;;5066878;28;20071;-58
2023/01/19 04:34:33;;;;;;;37.33;14.25;;;;;;;;;;5068812;28;20044;-59
2023/01/19 04:36:58;;;;;;;34.50;17.17;;;;;;;;;;5067739;28;20024;-59
2023/01/19 04:39:23;;;;;;;38.30;16.73;;;;;;;;;;5068494;28;20024;-58
2023/01/19 04:41:50;;;;;;;34.90;15.60;;;;;;;;;;5066277;28;20029;-59
2023/01/19 04:44:15;;;;;;;35.35;17.45;;;;;;;;;;5064055;28;20115;-59
2023/01/19 04:46:41;;;;;;;30.25;13.63;;;;;;;;;;5065870;28;20137;-58
2023/01/19 04:49:07;;;;;;;37.85;15.35;;;;;;;;;;5065061;28;20476;-59
2023/01/19 04:51:33;;;;;;;38.15;18.55;;;;;;;;;;5068826;28;20579;-58
2023/01/19 04:53:58;;;;;;;39.17;15.70;;;;;;;;;;5068767;28;20020;-59
2023/01/19 04:56:23;;;;;;;45.47;18.23;;;;;;;;;;5067827;28;20024;-58
2023/01/19 04:58:48;;;;;;;41.00;15.90;;;;;;;;;;5067849;28;20028;-60
2023/01/19 05:01:14;;;;;;;30.83;15.40;;;;;;;;;;5068440;28;20078;-58
2023/01/19 05:03:39;;;;;;;41.63;17.42;;;;;;;;;;5067369;28;20028;-58
2023/01/19 05:06:05;;;;;;;33.97;15.60;;;;;;;;;;5067644;28;20050;-59
2023/01/19 05:08:30;;;;;;;36.70;17.20;;;;;;;;;;5065191;28;20476;-58
2023/01/19 05:10:56;;;;;;;39.78;17.80;;;;;;;;;;5064039;28;20107;-58
2023/01/19 05:13:21;;;;;;;36.88;17.63;;;;;;;;;;5068582;28;20028;-58
2023/01/19 05:15:46;;;;;;;43.88;15.30;;;;;;;;;;5067781;28;20024;-58
2023/01/19 05:18:12;;;;;;;34.47;14.80;;;;;;;;;;5066332;28;20060;-60
2023/01/19 05:20:38;;;;;;;43.03;17.23;;;;;;;;;;5065490;28;20036;-60
2023/01/19 05:23:03;;;;;;;39.33;17.15;;;;;;;;;;5067019;28;20031;-58
2023/01/19 05:25:28;;;;;;;36.78;16.48;;;;;;;;;;5066080;28;20028;-59
2023/01/19 05:27:54;;;;;;;38.17;17.33;;;;;;;;;;5063314;28;20041;-59
2023/01/19 05:30:19;;;;;;;42.63;16.33;;;;;;;;;;5068533;28;20033;-59
2023/01/19 05:32:44;;;;;;;41.17;16.08;;;;;;;;;;5065674;28;20032;-59
2023/01/19 05:35:12;;;;;;;37.33;15.55;;;;;;;;;;5059829;28;20081;-61
2023/01/19 05:37:37;;;;;;;34.42;15.65;;;;;;;;;;5066526;28;20024;-58
2023/01/19 05:40:02;;;;;;;34.20;15.73;;;;;;;;;;5064248;28;20020;-58
2023/01/19 05:42:28;;;;;;;51.63;17.92;;;;;;;;;;5059723;28;20033;-59
2023/01/19 05:44:53;;;;;;;40.78;16.52;;;;;;;;;;5065089;28;20032;-59
2023/01/19 05:47:18;;;;;;;42.40;17.25;;;;;;;;;;5066565;28;20020;-62
2023/01/19 05:49:43;;;;;;;36.83;15.90;;;;;;;;;;5074172;28;20550;-59
2023/01/19 05:52:08;;;;;;;38.78;17.00;;;;;;;;;;5067042;28;20515;-59
2023/01/19 05:54:34;;;;;;;40.58;17.88;;;;;;;;;;5066465;28;20031;-58
2023/01/19 05:56:59;;;;;;;44.25;16.73;;;;;;;;;;5066473;28;20104;-59
2023/01/19 05:59:25;;;;;;;44.88;18.70;;;;;;;;;;5064992;28;20058;-58
2023/01/19 06:01:50;;;;;;;39.42;17.75;;;;;;;;;;5063871;28;20069;-58
2023/01/19 06:04:15;;;;;;;36.40;15.05;;;;;;;;;;5065167;28;20020;-58
2023/01/19 06:06:41;;;;;;;39.60;15.77;;;;;;;;;;5067667;28;20050;-60
2023/01/19 06:09:06;;;;;;;38.67;15.52;;;;;;;;;;5066441;28;20410;-58
2023/01/19 06:11:32;;;;;;;28.83;11.52;;;;;;;;;;5066114;28;20021;-59
2023/01/19 06:13:57;;;;;;;37.47;14.90;;;;;;;;;;5062202;28;20070;-58
2023/01/19 06:16:22;;;;;;;39.75;14.35;;;;;;;;;;5065281;28;20067;-58
2023/01/19 06:18:47;;;;;;;42.75;15.75;;;;;;;;;;5061156;28;20787;-59
2023/01/19 06:21:13;;;;;;;36.13;14.25;;;;;;;;;;5082571;28;20167;-58
2023/01/19 06:23:38;;;;;;;40.72;16.13;;;;;;;;;;5066693;28;20096;-60
2023/01/19 06:26:03;;;;;;;41.65;16.23;;;;;;;;;;5064827;28;20032;-60
2023/01/19 06:28:29;;;;;;;30.88;14.13;;;;;;;;;;5066011;28;20047;-60
2023/01/19 06:30:54;;;;;;;37.78;15.20;;;;;;;;;;5066287;28;20695;-59
2023/01/19 06:33:19;;;;;;;46.67;16.48;;;;;;;;;;5066445;28;20449;-59
2023/01/19 06:35:45;;;;;;;39.13;15.40;;;;;;;;;;5065133;28;20028;-59
2023/01/19 06:38:12;;;;;;;28.23;11.98;;;;;;;;;;5066685;28;20025;-59
2023/01/19 06:40:37;;;;;;;44.17;16.17;;;;;;;;;;5064419;28;20047;-59
2023/01/19 06:43:03;;;;;;;39.78;14.95;;;;;;;;;;5059742;28;20020;-59
2023/01/19 06:45:28;;;;;;;35.08;14.60;;;;;;;;;;5066218;28;20455;-59
2023/01/19 06:47:53;;;;;;;43.55;18.00;;;;;;;;;;5064935;28;20494;-60
2023/01/19 06:50:18;;;;;;;36.22;15.75;;;;;;;;;;5065848;28;20025;-59
2023/01/19 06:52:44;;;;;;;30.90;13.82;;;;;;;;;;5065981;28;20562;-59
2023/01/19 06:55:09;;;;;;;44.70;14.80;;;;;;;;;;5058466;28;20651;-59
2023/01/19 06:57:37;;;;;;;38.53;14.70;;;;;;;;;;5056232;28;20482;-59
2023/01/19 07:00:04;;;;;;;36.85;15.27;;;;;;;;;;5064138;28;20052;-59
2023/01/19 07:02:30;;;;;;;34.58;15.93;;;;;;;;;;5064159;28;20017;-59
2023/01/19 07:04:55;;;;;;;36.50;14.10;;;;;;;;;;5063319;28;20066;-59
2023/01/19 07:07:20;;;;;;;35.08;14.48;;;;;;;;;;5063817;28;20051;-59
2023/01/19 07:09:46;;;;;;;32.80;15.35;;;;;;;;;;5063659;28;20438;-60
2023/01/19 07:12:11;;;;;;;36.65;14.32;;;;;;;;;;5062518;28;20383;-59
2023/01/19 07:14:36;;;;;;;46.80;14.82;;;;;;;;;;5063957;28;20047;-59
2023/01/19 07:17:04;;;;;;;34.72;14.98;;;;;;;;;;5062055;28;20115;-59
2023/01/19 07:19:30;;;;;;;43.28;14.35;;;;;;;;;;5060846;28;20522;-59
2023/01/19 07:21:55;;;;;;;31.05;13.82;;;;;;;;;;5063200;28;20158;-59
2023/01/19 07:24:20;;;;;;;30.48;11.52;;;;;;;;;;5062402;28;20029;-59
2023/01/19 07:26:45;;;;;;;23.27;11.45;;;;;;;;;;5064358;28;20108;-60
2023/01/19 07:29:11;;;;;;;30.38;12.98;;;;;;;;;;5061842;28;20036;-58
2023/01/19 07:31:36;;;;;;;35.63;12.80;;;;;;;;;;5061139;28;20070;-58
2023/01/19 07:34:02;;;;;;;30.92;13.15;;;;;;;;;;5062691;28;20037;-58
2023/01/19 07:36:27;;;;;;;27.73;12.88;;;;;;;;;;5061364;28;20081;-58
2023/01/19 07:38:52;;;;;;;33.60;14.13;;;;;;;;;;5061342;28;20024;-57
2023/01/19 07:41:17;;;;;;;30.50;12.00;;;;;;;;;;5061081;28;20024;-60
2023/01/19 07:43:43;;;;;;;35.95;14.45;;;;;;;;;;5062247;28;20470;-60
2023/01/19 07:46:08;;;;;;;37.00;12.43;;;;;;;;;;5062599;28;20146;-59
2023/01/19 07:48:33;;;;;;;30.42;12.43;;;;;;;;;;5063060;28;20055;-60
2023/01/19 07:51:07;;;;;;;27.60;12.27;;;;;;;;;;5062869;28;20032;-58
2023/01/19 07:53:32;;;;;;;41.50;12.57;;;;;;;;;;5058995;28;20077;-58
2023/01/19 07:55:58;;;;;;;32.97;13.50;;;;;;;;;;5062957;28;20449;-58
2023/01/19 07:58:23;;;;;;;20.92;9.68;;;;;;;;;;5061095;28;20120;-58
2023/01/19 08:00:49;;;;;;;33.53;10.75;;;;;;;;;;5063579;28;20033;-58
2023/01/19 08:03:15;;;;;;;24.70;12.13;;;;;;;;;;5062967;28;20035;-59
2023/01/19 08:05:40;;;;;;;36.55;12.00;;;;;;;;;;5061540;28;20423;-58
2023/01/19 08:08:05;;;;;;;20.90;9.77;;;;;;;;;;5062148;28;20060;-59
2023/01/19 08:10:33;;;;;;;26.67;11.40;;;;;;;;;;5061615;28;20041;-59
2023/01/19 08:12:58;;;;;;;30.58;12.20;;;;;;;;;;5060201;28;20074;-58
2023/01/19 08:15:24;;;;;;;28.33;11.80;;;;;;;;;;5063737;28;20048;-58
2023/01/19 08:17:58;;;;;;;35.75;15.00;;;;;;;;;;5062440;28;20121;-58
2023/01/19 08:20:24;;;;;;;46.42;21.60;;;;;;;;;;5058395;28;20426;-58
2023/01/19 08:22:49;;;;;;;35.85;17.30;;;;;;;;;;5060752;28;20036;-60
2023/01/19 08:25:23;;;;;;;33.25;17.27;;;;;;;;;;5062752;28;20526;-61
2023/01/19 08:27:49;;;;;;;40.05;16.85;;;;;;;;;;5058360;28;20036;-59
2023/01/19 08:30:14;;;;;;;31.45;15.05;;;;;;;;;;5060577;28;20032;-59
2023/01/19 08:32:39;;;;;;;24.15;10.52;;;;;;;;;;5062999;28;20487;-59
2023/01/19 08:35:05;;;;;;;31.80;12.63;;;;;;;;;;5062470;28;20462;-60
2023/01/19 08:37:30;;;;;;;33.45;13.00;;;;;;;;;;5060662;28;20336;-59
2023/01/19 08:39:55;;;;;;;26.58;9.68;;;;;;;;;;5061570;28;20032;-59
2023/01/19 08:42:20;;;;;;;33.28;13.32;;;;;;;;;;5059408;28;20486;-58
2023/01/19 08:44:46;;;;;;;29.58;12.43;;;;;;;;;;5062239;28;20371;-58
2023/01/19 08:47:11;;;;;;;27.40;11.27;;;;;;;;;;5062312;28;20025;-58
2023/01/19 08:49:36;;;;;;;33.42;12.13;;;;;;;;;;5061260;28;20060;-58
2023/01/19 08:52:02;;;;;;;27.83;11.18;;;;;;;;;;5063256;28;20047;-58
2023/01/19 08:54:27;;;;;;;31.08;11.65;;;;;;;;;;5062102;28;20353;-59
2023/01/19 08:56:52;;;;;;;26.83;11.32;;;;;;;;;;5061259;28;20028;-58
2023/01/19 08:59:18;;;;;;;19.92;8.90;;;;;;;;;;5078230;28;20028;-58
2023/01/19 09:01:43;;;;;;;27.80;12.88;;;;;;;;;;5064200;28;20436;-57
2023/01/19 09:04:08;;;;;;;26.55;13.50;;;;;;;;;;5064963;28;20123;-59
2023/01/19 09:06:33;;;;;;;28.08;10.88;;;;;;;;;;5062261;28;20020;-60
2023/01/19 09:08:59;;;;;;;28.15;11.65;;;;;;;;;;5065181;28;20068;-59
2023/01/19 09:11:24;;;;;;;25.20;9.43;;;;;;;;;;5063936;28;20355;-58
2023/01/19 09:13:50;;;;;;;29.60;11.35;;;;;;;;;;5065916;28;20032;-60
2023/01/19 09:16:15;;;;;;;25.15;10.73;;;;;;;;;;5064701;28;20035;-59
2023/01/19 09:18:40;;;;;;;26.00;12.30;;;;;;;;;;5060319;28;20381;-60
2023/01/19 09:21:05;;;;;;;26.55;11.60;;;;;;;;;;5064688;28;20020;-59
2023/01/19 09:23:31;;;;;;;22.92;10.48;;;;;;;;;;5065806;28;20371;-59
2023/01/19 09:25:57;;;;;;;25.88;9.88;;;;;;;;;;5065581;28;20031;-59
2023/01/19 09:28:22;;;;;;;23.90;11.75;;;;;;;;;;5060073;28;20402;-59
2023/01/19 09:30:48;;;;;;;26.80;10.23;;;;;;;;;;5064343;28;20541;-59
2023/01/19 09:33:14;;;;;;;24.40;10.65;;;;;;;;;;5064124;28;20450;-59
2023/01/19 09:35:39;;;;;;;22.40;9.07;;;;;;;;;;5078104;28;20040;-59
2023/01/19 09:38:06;;;;;;;22.92;9.52;;;;;;;;;;5064783;28;20033;-59
2023/01/19 09:40:31;;;;;;;26.58;10.80;;;;;;;;;;5065459;28;20029;-59
2023/01/19 09:43:17;;;;;;;32.25;11.13;;;;;;;;;;5060631;28;20069;-59
2023/01/19 09:45:48;;;;;;;29.17;11.45;;;;;;;;;;5063663;28;20024;-59
2023/01/19 09:48:29;;;;;;;25.27;9.82;;;;;;;;;;5092676;27;20822;-59
2023/01/19 09:50:54;;;;;;;27.30;9.95;;;;;;;;;;5060999;28;20029;-59
2023/01/19 09:53:22;;;;;;;30.38;11.00;;;;;;;;;;5065582;28;20094;-60
2023/01/19 09:55:48;;;;;;;21.85;10.25;;;;;;;;;;5062762;28;20102;-59
2023/01/19 09:58:15;;;;;;;23.10;9.32;;;;;;;;;;5065364;28;20065;-59
2023/01/19 10:00:43;;;;;;;23.38;10.18;;;;;;;;;;5065322;28;20059;-59
2023/01/19 10:03:13;;;;;;;29.00;9.57;;;;;;;;;;5063428;28;20048;-59
2023/01/19 10:05:41;;;;;;;19.25;9.40;;;;;;;;;;5061064;28;20028;-59
2023/01/19 10:08:09;;;;;;;25.13;9.70;;;;;;;;;;5064068;28;20072;-59
2023/01/19 10:10:34;;;;;;;22.73;10.63;;;;;;;;;;5063180;28;20028;-59
2023/01/19 10:13:18;;;;;;;25.90;9.80;;;;;;;;;;5063749;28;20039;-60
2023/01/19 10:15:53;;;;;;;21.70;9.63;;;;;;;;;;5060953;28;20363;-60
2023/01/19 10:18:21;;;;;;;24.98;10.38;;;;;;;;;;5061030;28;20489;-60
2023/01/19 10:20:46;;;;;;;20.02;9.80;;;;;;;;;;5060451;28;20057;-58
2023/01/19 10:23:28;;;;;;;30.27;11.18;;;;;;;;;;5057082;28;20032;-58
2023/01/19 10:25:53;;;;;;;27.27;11.05;;;;;;;;;;5061510;28;20475;-58
2023/01/19 10:28:21;;;;;;;24.13;11.07;;;;;;;;;;5064449;28;20044;-58
2023/01/19 10:30:46;;;;;;;23.25;10.93;;;;;;;;;;5066088;28;20031;-58
2023/01/19 10:33:12;;;;;;;21.25;9.05;;;;;;;;;;5065964;28;20024;-58
2023/01/19 10:35:37;;;;;;;21.33;10.02;;;;;;;;;;5065732;28;20103;-58
2023/01/19 10:38:03;;;;;;;21.15;8.90;;;;;;;;;;5066659;28;20454;-59
2023/01/19 10:40:37;;;;;;;20.58;9.85;;;;;;;;;;5066236;28;20028;-58
2023/01/19 10:43:21;;;;;;;22.33;9.90;;;;;;;;;;5060316;28;20035;-59
2023/01/19 10:45:48;;;;;;;19.85;9.88;;;;;;;;;;5063267;28;20024;-58
2023/01/19 10:48:13;;;;;;;21.05;9.45;;;;;;;;;;5064806;28;20028;-58
2023/01/19 10:50:38;;;;;;;21.77;10.43;;;;;;;;;;5066991;28;20028;-58
2023/01/19 10:53:07;;;;;;;21.00;8.63;;;;;;;;;;5066956;28;20343;-60
2023/01/19 10:55:38;;;;;;;21.67;8.63;;;;;;;;;;5066328;28;20174;-58
2023/01/19 10:58:04;;;;;;;16.85;8.50;;;;;;;;;;5081761;28;20081;-59
2023/01/19 11:00:29;;;;;;;21.75;8.73;;;;;;;;;;5065190;28;20032;-58
2023/01/19 11:02:54;;;;;;;17.98;8.38;;;;;;;;;;5066076;28;20028;-59
2023/01/19 11:05:21;;;;;;;22.75;7.82;;;;;;;;;;5066441;28;20035;-59
2023/01/19 11:07:46;;;;;;;16.05;8.57;;;;;;;;;;5066584;28;20044;-58
2023/01/19 11:10:14;;;;;;;18.98;9.35;;;;;;;;;;5066584;28;20054;-59
2023/01/19 11:12:55;;;;;;;24.20;8.18;;;;;;;;;;5066571;28;20173;-59
2023/01/19 11:15:20;;;;;;;;;;;;;;;;;;5066114;28;20348;-59
2023/01/19 11:17:47;;;;;;;16.50;8.18;;;;;;;;;;5065928;28;19914;-58
2023/01/19 11:20:22;;;;;;;31.50;8.68;;;;;;;;;;5064356;28;20074;-58
2023/01/19 11:22:47;;;;;;;19.52;9.07;;;;;;;;;;5065700;28;20166;-59
2023/01/19 11:25:27;;;;;;;18.63;8.52;;;;;;;;;;5065138;28;20103;-58
2023/01/19 11:27:52;;;;;;;17.88;7.55;;;;;;;;;;5064959;28;20031;-58
2023/01/19 11:30:18;;;;;;;13.88;7.93;;;;;;;;;;5065949;28;20020;-59
2023/01/19 11:32:44;;;;;;;15.85;7.82;;;;;;;;;;5061334;28;20044;-59
2023/01/19 11:35:28;;;;;;;22.85;9.48;;;;;;;;;;5062289;28;20028;-58
2023/01/19 11:38:11;;;;;;;25.25;8.50;;;;;;;;;;5065482;28;20210;-58
2023/01/19 11:40:37;;;;;;;19.98;8.25;;;;;;;;;;5060644;28;20017;-59
2023/01/19 11:43:02;;;;;;;13.60;7.57;;;;;;;;;;5061838;28;20036;-59
2023/01/19 11:45:27;;;;;;;36.53;8.27;;;;;;;;;;5064916;28;20101;-62
2023/01/19 11:47:52;;;;;;;16.60;6.90;;;;;;;;;;5065744;28;20098;-58
2023/01/19 11:50:24;;;;;;;14.80;7.35;;;;;;;;;;5063614;28;20048;-59
2023/01/19 11:53:05;;;;;;;15.15;6.72;;;;;;;;;;5065983;28;20020;-58
2023/01/19 11:55:38;;;;;;;15.40;7.35;;;;;;;;;;5065148;28;20025;-59
2023/01/19 11:58:03;;;;;;;18.02;7.55;;;;;;;;;;5063881;28;20032;-59
2023/01/19 12:00:47;;;;;;;21.00;6.35;;;;;;;;;;5062747;28;20033;-61
2023/01/19 12:03:21;;;;;;;16.30;7.32;;;;;;;;;;5065040;28;20024;-58
2023/01/19 12:05:48;;;;;;;16.05;6.75;;;;;;;;;;5065732;28;20021;-59
2023/01/19 12:08:36;;;;;;;14.45;7.32;;;;;;;;;;5055119;28;20043;-59
2023/01/19 12:11:02;;;;;;;16.58;6.80;;;;;;;;;;5063164;28;20039;-58
2023/01/19 12:13:29;;;;;;;14.52;6.88;;;;;;;;;;5051966;28;20549;-58
2023/01/19 12:16:03;;;;;;;19.00;7.32;;;;;;;;;;5063359;28;20420;-58
2023/01/19 12:18:31;;;;;;;15.85;7.32;;;;;;;;;;5061789;28;20021;-59
2023/01/19 12:20:57;;;;;;;14.35;6.22;;;;;;;;;;5061349;28;20038;-58
2023/01/19 12:23:32;;;;;;;13.55;6.53;;;;;;;;;;5064137;28;20025;-58
2023/01/19 12:26:15;;;;;;;15.25;5.72;;;;;;;;;;5062296;28;20410;-59
2023/01/19 12:28:41;;;;;;;13.05;6.00;;;;;;;;;;5059749;28;20090;-63
2023/01/19 12:31:07;;;;;;;14.38;6.65;;;;;;;;;;5057825;28;20058;-58
2023/01/19 12:33:33;;;;;;;12.75;5.65;;;;;;;;;;5065717;28;20431;-60
2023/01/19 12:35:59;;;;;;;13.30;6.88;;;;;;;;;;5067800;28;20455;-58
2023/01/19 12:38:40;;;;;;;11.57;5.88;;;;;;;;;;5063326;28;20394;-59
2023/01/19 12:41:05;;;;;;;;;;;;;;;;;;5067080;28;20048;-57
2023/01/19 12:43:30;;;;;;;18.35;5.97;;;;;;;;;;5059544;28;19913;-59
2023/01/19 12:45:55;;;;;;;16.50;5.85;;;;;;;;;;5069533;28;20331;-59
2023/01/19 12:48:24;;;;;;;14.43;5.78;;;;;;;;;;5067897;28;20159;-59
2023/01/19 12:50:49;;;;;;;11.07;6.10;;;;;;;;;;5068706;28;20519;-59
2023/01/19 12:53:15;;;;;;;10.73;6.20;;;;;;;;;;5067986;28;20357;-59
2023/01/19 12:55:45;;;;;;;15.75;6.53;;;;;;;;;;5050082;28;20028;-58
2023/01/19 12:58:17;;;;;;;19.30;5.70;;;;;;;;;;5068389;28;20025;-58
2023/01/19 13:01:02;;;;;;;10.27;5.70;;;;;;;;;;5060972;28;20495;-58
2023/01/19 13:03:27;;;;;;;15.68;5.65;;;;;;;;;;5067716;28;20024;-58
2023/01/19 13:05:53;;;;;;;11.43;6.03;;;;;;;;;;5064619;28;20502;-58
2023/01/19 13:08:19;;;;;;;13.32;6.72;;;;;;;;;;5066477;28;20043;-59
2023/01/19 13:11:09;;;;;;;15.15;5.60;;;;;;;;;;5068541;28;20405;-59
2023/01/19 13:13:35;;;;;;;16.63;6.90;;;;;;;;;;5068246;28;20111;-59
2023/01/19 13:16:23;;;;;;;13.95;6.38;;;;;;;;;;5065878;28;20030;-59
2023/01/19 13:18:52;;;;;;;14.85;6.22;;;;;;;;;;5064497;28;20040;-59
2023/01/19 13:21:30;;;;;;;13.98;6.30;;;;;;;;;;5082128;28;20095;-58
2023/01/19 13:23:56;;;;;;;12.10;6.25;;;;;;;;;;5067752;28;20379;-58
2023/01/19 13:26:30;;;;;;;17.70;6.45;;;;;;;;;;5067661;28;20040;-59
2023/01/19 13:29:16;;;;;;;15.73;6.25;;;;;;;;;;5064589;28;20027;-59
2023/01/19 13:31:43;;;;;;;9.07;4.93;;;;;;;;;;5067146;28;20035;-59
2023/01/19 13:34:27;;;;;;;10.75;5.68;;;;;;;;;;5062847;28;20783;-59
2023/01/19 13:36:53;;;;;;;10.35;5.20;;;;;;;;;;5064719;28;20061;-59
2023/01/19 13:39:28;;;;;;;17.42;5.32;;;;;;;;;;5067374;28;20017;-59
2023/01/19 13:41:54;;;;;;;13.68;5.38;;;;;;;;;;5066577;28;20028;-60
2023/01/19 13:44:22;;;;;;;10.88;4.95;;;;;;;;;;5062198;28;20351;-59
2023/01/19 13:46:47;;;;;;;10.18;4.53;;;;;;;;;;5065104;28;20107;-59
2023/01/19 13:49:13;;;;;;;11.27;5.75;;;;;;;;;;5062243;28;20431;-58
2023/01/19 13:51:38;;;;;;;13.82;5.30;;;;;;;;;;5064164;28;20716;-58
2023/01/19 13:54:05;;;;;;;16.85;5.45;;;;;;;;;;5066420;28;20024;-59
2023/01/19 13:56:30;;;;;;;13.07;4.82;;;;;;;;;;5062722;28;20123;-59
2023/01/19 13:58:58;;;;;;;15.02;5.57;;;;;;;;;;5066021;28;20047;-59
2023/01/19 14:01:24;;;;;;;12.95;5.70;;;;;;;;;;5067813;28;20040;-59
2023/01/19 14:03:53;;;;;;;14.23;5.85;;;;;;;;;;5066947;28;20028;-59
2023/01/19 14:06:37;;;;;;;13.00;5.22;;;;;;;;;;5064255;28;20020;-59
2023/01/19 14:09:16;;;;;;;10.77;4.95;;;;;;;;;;5064147;28;20380;-59
2023/01/19 14:11:42;;;;;;;16.17;6.28;;;;;;;;;;5066613;28;20067;-59
2023/01/19 14:14:23;;;;;;;13.68;6.20;;;;;;;;;;5066381;28;20040;-59
2023/01/19 14:16:49;;;;;;;14.25;5.53;;;;;;;;;;5064917;28;20028;-59
2023/01/19 14:19:14;;;;;;;10.00;5.43;;;;;;;;;;5064035;28;20390;-59
2023/01/19 14:21:39;;;;;;;13.63;4.57;;;;;;;;;;5067572;28;20074;-59
2023/01/19 14:24:08;;;;;;;14.77;5.00;;;;;;;;;;5065768;28;20077;-59
2023/01/19 14:26:37;;;;;;;12.98;5.30;;;;;;;;;;5064894;28;20356;-59
2023/01/19 14:29:08;;;;;;;9.07;5.40;;;;;;;;;;5065209;28;20514;-59
2023/01/19 14:31:33;;;;;;;13.13;4.93;;;;;;;;;;5063272;28;20054;-60
2023/01/19 14:33:58;;;;;;;14.20;5.85;;;;;;;;;;5048228;28;20036;-59
2023/01/19 14:36:27;;;;;;;12.15;6.45;;;;;;;;;;5066203;28;20021;-60